Latest Coastal Weather Observations for Orbost

IDV60701

Issued at 10:11 pm EST Tuesday 5 May 2015 (issued every 10 minutes, with the page automatically refreshed every 10 minutes)

About coastal observations | Map of coastal stations | Coastal observations for VIC | Marine services | Other Formats
Station Details ID: 084145 Name: ORBOST Lat: -37.69 Lon: 148.47 Height: 62.65 m
Data from the previous 72 hours. | See also: Recent months at Orbost
Date/Time
EST
Temp

°C
Wind Pressure Rain
since 9am
mm
Weather Cloud Vis
km
Sea
Height
m
Swell
Dir
 
Speed
knots
Gust
knots
hPa Trend Height
m
Period
s
Dir
05/10:00pm 14.5 WNW 9 14 1005.8 - 0.0 - - - - - - -
05/09:30pm 14.4 NW 9 15 1005.2 - 0.0 - - - - - - -
05/09:00pm 14.5 NW 7 13 1004.7 - 0.0 - - - - - - -
05/08:30pm 14.8 NW 10 17 1004.3 - 0.0 - - - - - - -
05/08:00pm 14.8 NW 11 17 1004.0 - 0.0 - - - - - - -
05/07:30pm 14.8 NW 10 16 1004.2 - 0.0 - - - - - - -
05/07:00pm 14.8 NW 8 14 1003.8 - 0.0 - - - - - - -
05/06:30pm 14.5 NW 9 17 1003.1 - 0.0 - - - - - - -
05/06:00pm 15.2 NW 12 20 1002.8 - 0.0 - - - - - - -
05/05:30pm 14.1 NW 8 12 1002.0 - 0.0 - - - - - - -
05/05:00pm 15.2 NW 15 25 1001.2 - 0.0 - - - - - - -
05/04:40pm 16.3 WNW 15 26 1001.3 - 0.0 - - - - - - -
05/04:30pm 16.7 W 14 22 1000.8 - 0.0 - - - - - - -
05/04:00pm 19.2 WNW 10 16 1000.1 - 0.0 - - - - - - -
05/03:30pm 20.1 NW 12 21 998.9 - 0.0 - - - - - - -
05/03:00pm 20.3 NW 15 27 998.3 - 0.0 - - - - - - -
05/02:35pm 20.4 NW 18 28 998.1 - 0.0 - - - - - - -
05/02:30pm 20.4 NW 17 27 998.1 - 0.0 - - - - - - -
05/02:00pm 20.8 NW 19 29 997.8 - 0.0 - - - - - - -
05/01:31pm 21.2 NW 15 28 997.6 - 0.0 - - - - - - -
05/01:30pm 21.1 NW 15 22 997.6 - 0.0 - - - - - - -
05/01:00pm 21.5 NW 18 31 997.6 - 0.0 - - - - - - -
05/12:30pm 22.4 NW 16 26 997.6 - 0.0 - - - - - - -
05/12:28pm 22.6 NW 15 26 997.6 - 0.0 - - - - - - -
05/12:00pm 22.6 WNW 14 24 997.7 - 0.0 - - - - - - -
05/11:30am 22.9 NW 13 20 998.0 - 0.0 - - - - - - -
05/11:15am 22.6 NNW 15 32 997.4 - 0.0 - - - - - - -
05/11:00am 22.8 NNW 13 21 997.9 - 0.0 - - - - - - -
05/10:33am 22.1 NNW 17 33 997.8 - 0.0 - - - - - - -
05/10:30am 21.9 NNW 17 27 997.7 - 0.0 - - - - - - -
05/10:00am 22.1 NNW 8 18 999.3 - 0.0 - - - - - - -
05/09:30am 21.8 NNW 6 11 1000.6 - 0.0 - - - - - - -
05/09:00am 20.7 NW 5 7 1001.0 - 0.0 - - - - - - -
05/08:30am 18.7 NNW 7 10 1001.3 - 0.0 - - - - - - -
05/08:00am 16.3 N 4 5 1001.8 - 0.0 - - - - - - -
05/07:30am 16.5 NNW 4 8 1001.9 - 0.0 - - - - - - -
05/07:00am 13.4 N 3 6 1001.7 - 0.0 - - - - - - -
05/06:30am 11.3 NNE 3 4 1001.6 - 0.0 - - - - - - -
05/06:00am 10.1 WNW 2 7 1002.0 - 0.0 - - - - - - -
05/05:30am 12.8 N 2 4 1001.8 - 0.0 - - - - - - -
05/05:00am 14.2 NE 3 5 1001.9 - 0.0 - - - - - - -
05/04:30am 12.7 NNE 4 5 1002.6 - 0.0 - - - - - - -
05/04:00am 12.1 NNE 3 4 1002.9 - 0.0 - - - - - - -
05/03:30am 10.9 N 3 4 1003.4 - 0.0 - - - - - - -
05/03:00am 10.5 NW 2 3 1003.7 - 0.0 - - - - - - -
05/02:30am 10.1 N 2 8 1003.5 - 0.0 - - - - - - -
05/02:00am 10.1 CALM 0 1 1004.1 - 0.0 - - - - - - -
05/01:30am 10.6 SSW 1 3 1004.2 - 0.0 - - - - - - -
05/01:00am 13.4 NE 4 6 1004.3 - 0.0 - - - - - - -
05/12:30am 11.0 CALM 0 1 1005.3 - 0.0 - - - - - - -
05/12:00am 10.8 NNW 2 3 1006.2 - 0.0 - - - - - - -
 
Date/Time
EST
Temp

°C
Wind Pressure Rain
since 9am
mm
Weather Cloud Vis
km
Sea
Height
m
Swell
Dir
 
Speed
knots
Gust
knots
hPa Trend Height
m
Period
s
Dir
04/11:30pm 11.0 NNW 1 2 1006.7 - 0.0 - - - - - - -
04/11:00pm 11.6 N 3 3 1007.1 - 0.0 - - - - - - -
04/10:30pm 11.5 WNW 1 1 1007.5 - 0.0 - - - - - - -
04/10:00pm 13.3 NNE 3 5 1007.9 - 0.0 - - - - - - -
04/09:30pm 12.5 NNE 3 6 1008.6 - 0.0 - - - - - - -
04/09:00pm 12.5 NE 1 3 1009.0 - 0.0 - - - - - - -
04/08:30pm 12.7 CALM 0 0 1009.3 - 0.0 - - - - - - -
04/08:00pm 13.3 CALM 0 0 1009.6 - 0.0 - - - - - - -
04/07:30pm 13.6 N 3 4 1010.0 - 0.0 - - - - - - -
04/07:00pm 13.3 NNE 2 3 1010.1 - 0.0 - - - - - - -
04/06:30pm 14.1 CALM 0 1 1010.4 - 0.0 - - - - - - -
04/06:00pm 14.4 SE 1 3 1010.1 - 0.0 - - - - - - -
04/05:30pm 15.3 SE 1 2 1010.1 - 0.0 - - - - - - -
04/05:00pm 16.6 ESE 3 5 1010.4 - 0.0 - - - - - - -
04/04:30pm 17.7 SE 3 5 1010.8 - 0.0 - - - - - - -
04/04:00pm 18.6 SE 4 7 1011.1 - 0.0 - - - - - - -
04/03:30pm 19.4 SSE 4 6 1011.3 - 0.0 - - - - - - -
04/03:00pm 20.0 SSE 4 7 1011.4 - 0.0 - - - - - - -
04/02:30pm 20.1 SE 4 7 1011.6 - 0.0 - - - - - - -
04/02:00pm 20.0 SE 4 6 1011.9 - 0.0 - - - - - - -
04/01:30pm 20.1 SE 3 5 1012.2 - 0.0 - - - - - - -
04/01:00pm 20.6 S 2 4 1012.6 - 0.0 - - - - - - -
04/12:30pm 20.0 S 3 6 1013.1 - 0.0 - - - - - - -
04/12:00pm 19.5 S 3 6 1013.7 - 0.0 - - - - - - -
04/11:30am 19.3 S 3 5 1014.2 - 0.0 - - - - - - -
04/11:00am 18.9 SSE 1 3 1014.6 - 0.0 - - - - - - -
04/10:30am 18.3 S 3 5 1015.1 - 0.0 - - - - - - -
04/10:00am 18.2 N 1 3 1015.2 - 0.0 - - - - - - -
04/09:30am 16.8 SE 2 2 1015.3 - 0.0 - - - - - - -
04/09:00am 15.0 SSW 1 2 1015.7 - 0.0 - - - - - - -
04/08:30am 13.3 CALM 0 0 1015.9 - 0.0 - - - - - - -
04/08:00am 12.5 CALM 0 0 1015.9 - 0.0 - - - - - - -
04/07:30am 11.8 CALM 0 0 1015.9 - 0.0 - - - - - - -
04/07:00am 12.0 N 2 3 1015.8 - 0.0 - - - - - - -
04/06:30am 13.0 ENE 4 5 1015.6 - 0.0 - - - - - - -
04/06:00am 12.9 ENE 2 3 1015.9 - 0.0 - - - - - - -
04/05:30am 13.5 NW 1 2 1016.2 - 0.0 - - - - - - -
04/05:00am 13.6 N 2 2 1016.2 - 0.0 - - - - - - -
04/04:30am 13.7 NW 1 5 1016.4 - 0.0 - - - - - - -
04/04:00am 13.7 CALM 0 0 1016.4 - 0.0 - - - - - - -
04/03:30am 13.6 CALM 0 0 1016.4 - 0.0 - - - - - - -
04/03:00am 13.7 N 1 2 1016.7 - 0.0 - - - - - - -
04/02:30am 13.7 CALM 0 0 1017.2 - 0.0 - - - - - - -
04/02:00am 13.7 CALM 0 0 1017.4 - 0.0 - - - - - - -
04/01:30am 13.7 CALM 0 0 1017.8 - 0.0 - - - - - - -
04/01:00am 13.7 CALM 0 1 1018.1 - 0.0 - - - - - - -
04/12:30am 13.5 CALM 0 0 1018.3 - 0.0 - - - - - - -
04/12:00am 13.6 CALM 0 0 1018.3 - 0.0 - - - - - - -
 
Date/Time
EST
Temp

°C
Wind Pressure Rain
since 9am
mm
Weather Cloud Vis
km
Sea
Height
m
Swell
Dir
 
Speed
knots
Gust
knots
hPa Trend Height
m
Period
s
Dir
03/11:30pm 13.9 CALM 0 0 1018.5 - 0.0 - - - - - - -
03/11:00pm 14.1 CALM 0 1 1018.7 - 0.0 - - - - - - -
03/10:30pm 14.0 N 2 2 1019.0 - 0.0 - - - - - - -
03/10:00pm 14.0 CALM 0 0 1019.1 - 0.0 - - - - - - -
03/09:30pm 13.9 CALM 0 0 1019.2 - 0.0 - - - - - - -
03/09:00pm 14.2 CALM 0 0 1019.1 - 0.0 - - - - - - -
03/08:30pm 14.1 CALM 0 0 1019.3 - 0.0 - - - - - - -
03/08:00pm 14.1 CALM 0 0 1019.2 - 0.0 - - - - - - -
03/07:30pm 14.1 CALM 0 0 1018.9 - 0.0 - - - - - - -
03/07:00pm 14.1 CALM 0 0 1018.8 - 0.0 - - - - - - -
03/06:30pm 14.2 CALM 0 0 1018.6 - 0.0 - - - - - - -
03/06:00pm 14.1 CALM 0 0 1018.3 - 0.0 - - - - - - -
03/05:30pm 14.4 CALM 0 0 1017.9 - 0.0 - - - - - - -
03/05:00pm 15.4 SE 1 2 1018.0 - 0.0 - - - - - - -
03/04:30pm 16.1 SSE 1 2 1018.0 - 0.0 - - - - - - -
03/04:00pm 16.3 S 2 3 1018.0 - 0.0 - - - - - - -
03/03:30pm 16.4 S 3 5 1017.9 - 0.0 - - - - - - -
03/03:00pm 17.2 CALM 0 1 1017.8 - 0.0 - - - - - - -
03/02:30pm 17.1 CALM 0 2 1017.8 - 0.0 - - - - - - -
03/02:00pm 16.8 SW 1 1 1017.9 - 0.0 - - - - - - -
03/01:30pm 16.7 SW 2 3 1018.2 - 0.0 - - - - - - -
03/01:00pm 16.9 CALM 0 0 1018.3 - 0.0 - - - - - - -
03/12:30pm 17.1 WNW 2 3 1018.8 - 0.0 - - - - - - -
03/12:00pm 18.2 N 3 6 1019.0 - 0.0 - - - - - - -
03/11:30am 16.9 WNW 3 3 1019.6 - 0.0 - - - - - - -
03/11:00am 16.5 WNW 3 5 1019.8 - 0.0 - - - - - - -
03/10:30am 16.4 WNW 3 5 1019.9 - 0.0 - - - - - - -
03/10:00am 16.3 NW 3 4 1019.8 - 0.0 - - - - - - -
03/09:30am 15.7 NW 2 4 1020.1 - 0.0 - - - - - - -
03/09:00am 15.0 NNW 2 3 1020.2 - 0.2 - - - - - - -
03/08:30am 14.3 N 4 5 1019.8 - 0.2 - - - - - - -
03/08:00am 13.5 NNW 1 3 1019.6 - 0.2 - - - - - - -
03/07:30am 13.1 NNW 3 4 1019.3 - 0.2 - - - - - - -
03/07:00am 12.4 NNW 4 7 1018.7 - 0.2 - - - - - - -
03/06:30am 11.6 N 5 6 1018.3 - 0.2 - - - - - - -
03/06:00am 11.0 NNE 3 5 1018.1 - 0.0 - - - - - - -
03/05:30am 11.0 N 3 5 1017.8 - 0.0 - - - - - - -
03/05:00am 11.2 WSW 6 16 1017.6 - 0.0 - - - - - - -
03/04:30am 12.2 NNW 2 3 1016.7 - 0.0 - - - - - - -
03/04:00am 12.5 CALM 0 0 1016.5 - 0.0 - - - - - - -
03/03:30am 12.9 CALM 0 2 1016.4 - 0.0 - - - - - - -
03/03:00am 12.9 CALM 0 0 1016.3 - 0.0 - - - - - - -
03/02:30am 13.8 CALM 0 0 1016.4 - 0.0 - - - - - - -
03/02:00am 13.6 NNW 2 2 1016.5 - 0.0 - - - - - - -
03/01:30am 13.0 ENE 1 3 1016.8 - 0.0 - - - - - - -
03/01:00am 13.9 N 2 4 1017.0 - 0.0 - - - - - - -
03/12:30am 13.1 NW 3 5 1017.3 - 0.0 - - - - - - -
03/12:00am 14.5 NNE 3 5 1017.1 - 0.0 - - - - - - -
 
Date/Time
EST
Temp

°C
Wind Pressure Rain
since 9am
mm
Weather Cloud Vis
km
Sea
Height
m
Swell
Dir
 
Speed
knots
Gust
knots
hPa Trend Height
m
Period
s
Dir
02/11:30pm 13.1 NNW 3 4 1017.2 - 0.0 - - - - - - -
02/11:00pm 13.5 CALM 0 0 1017.0 - 0.0 - - - - - - -
02/10:30pm 13.9 N 2 4 1016.9 - 0.0 - - - - - - -

Other Formats:

Comma delimited format used in spreadsheet applications
http://www.bom.gov.au/fwo/IDV60701/IDV60701.95918.axf

JavaScript Object Notation format (JSON) in row-major order
http://www.bom.gov.au/fwo/IDV60701/IDV60701.95918.json